sensor_id;sensor_type;location;lat;lon;timestamp;P1;durP1;ratioP1;P2;durP2;ratioP2
37288;SDS011;23174;49.462;11.000;2023-01-20T00:01:27;6.22;;;5.63;;
37288;SDS011;23174;49.462;11.000;2023-01-20T00:03:28;5.90;;;5.35;;
37288;SDS011;23174;49.462;11.000;2023-01-20T00:05:28;5.75;;;5.25;;
37288;SDS011;23174;49.462;11.000;2023-01-20T00:07:29;6.38;;;5.72;;
37288;SDS011;23174;49.462;11.000;2023-01-20T00:09:30;6.53;;;5.85;;
37288;SDS011;23174;49.462;11.000;2023-01-20T00:11:30;5.80;;;5.35;;
37288;SDS011;23174;49.462;11.000;2023-01-20T00:13:32;6.85;;;5.70;;
37288;SDS011;23174;49.462;11.000;2023-01-20T00:15:33;6.68;;;5.75;;
37288;SDS011;23174;49.462;11.000;2023-01-20T00:17:34;6.05;;;5.55;;
37288;SDS011;23174;49.462;11.000;2023-01-20T00:19:35;7.45;;;5.93;;
37288;SDS011;23174;49.462;11.000;2023-01-20T00:21:35;7.00;;;6.30;;
37288;SDS011;23174;49.462;11.000;2023-01-20T00:23:36;6.53;;;6.03;;
37288;SDS011;23174;49.462;11.000;2023-01-20T00:25:37;8.18;;;6.07;;
37288;SDS011;23174;49.462;11.000;2023-01-20T00:27:38;7.03;;;5.78;;
37288;SDS011;23174;49.462;11.000;2023-01-20T00:29:38;5.53;;;5.13;;
37288;SDS011;23174;49.462;11.000;2023-01-20T00:31:39;8.48;;;6.43;;
37288;SDS011;23174;49.462;11.000;2023-01-20T00:33:39;6.45;;;5.95;;
37288;SDS011;23174;49.462;11.000;2023-01-20T00:35:40;6.88;;;6.18;;
37288;SDS011;23174;49.462;11.000;2023-01-20T00:37:41;6.78;;;6.13;;
37288;SDS011;23174;49.462;11.000;2023-01-20T00:39:42;6.57;;;5.93;;
37288;SDS011;23174;49.462;11.000;2023-01-20T00:41:43;6.75;;;6.05;;
37288;SDS011;23174;49.462;11.000;2023-01-20T00:43:43;7.40;;;6.70;;
37288;SDS011;23174;49.462;11.000;2023-01-20T00:45:44;6.55;;;5.68;;
37288;SDS011;23174;49.462;11.000;2023-01-20T00:47:44;6.45;;;5.85;;
37288;SDS011;23174;49.462;11.000;2023-01-20T00:49:45;6.13;;;5.63;;
37288;SDS011;23174;49.462;11.000;2023-01-20T00:51:46;6.63;;;6.05;;
37288;SDS011;23174;49.462;11.000;2023-01-20T00:53:47;6.45;;;5.82;;
37288;SDS011;23174;49.462;11.000;2023-01-20T00:55:48;7.45;;;5.50;;
37288;SDS011;23174;49.462;11.000;2023-01-20T00:57:48;6.38;;;5.78;;
37288;SDS011;23174;49.462;11.000;2023-01-20T00:59:49;7.43;;;5.55;;
37288;SDS011;23174;49.462;11.000;2023-01-20T01:01:49;6.22;;;5.70;;
37288;SDS011;23174;49.462;11.000;2023-01-20T01:03:51;6.93;;;6.32;;
37288;SDS011;23174;49.462;11.000;2023-01-20T01:05:53;6.22;;;5.63;;
37288;SDS011;23174;49.462;11.000;2023-01-20T01:07:54;6.78;;;6.20;;
37288;SDS011;23174;49.462;11.000;2023-01-20T01:09:54;6.68;;;5.97;;
37288;SDS011;23174;49.462;11.000;2023-01-20T01:11:55;6.25;;;5.75;;
37288;SDS011;23174;49.462;11.000;2023-01-20T01:13:56;5.47;;;4.97;;
37288;SDS011;23174;49.462;11.000;2023-01-20T01:15:56;6.03;;;5.43;;
37288;SDS011;23174;49.462;11.000;2023-01-20T01:17:57;6.43;;;5.78;;
37288;SDS011;23174;49.462;11.000;2023-01-20T01:19:58;6.38;;;5.78;;
37288;SDS011;23174;49.462;11.000;2023-01-20T01:21:59;6.80;;;6.05;;
37288;SDS011;23174;49.462;11.000;2023-01-20T01:24:00;6.88;;;6.05;;
37288;SDS011;23174;49.462;11.000;2023-01-20T01:26:00;6.65;;;6.05;;
37288;SDS011;23174;49.462;11.000;2023-01-20T01:28:01;6.80;;;6.20;;
37288;SDS011;23174;49.462;11.000;2023-01-20T01:30:01;6.40;;;5.80;;
37288;SDS011;23174;49.462;11.000;2023-01-20T01:32:02;6.15;;;5.65;;
37288;SDS011;23174;49.462;11.000;2023-01-20T01:34:03;6.05;;;5.55;;
37288;SDS011;23174;49.462;11.000;2023-01-20T01:36:04;6.65;;;6.03;;
37288;SDS011;23174;49.462;11.000;2023-01-20T01:38:07;6.68;;;6.18;;
37288;SDS011;23174;49.462;11.000;2023-01-20T01:40:10;8.65;;;6.13;;
37288;SDS011;23174;49.462;11.000;2023-01-20T01:42:18;6.97;;;6.38;;
37288;SDS011;23174;49.462;11.000;2023-01-20T01:44:21;6.82;;;6.22;;
37288;SDS011;23174;49.462;11.000;2023-01-20T01:46:25;6.10;;;5.60;;
37288;SDS011;23174;49.462;11.000;2023-01-20T01:50:39;7.90;;;7.15;;
37288;SDS011;23174;49.462;11.000;2023-01-20T01:52:46;6.68;;;5.65;;
37288;SDS011;23174;49.462;11.000;2023-01-20T01:54:49;6.38;;;5.78;;
37288;SDS011;23174;49.462;11.000;2023-01-20T01:56:52;6.55;;;5.55;;
37288;SDS011;23174;49.462;11.000;2023-01-20T01:58:53;6.85;;;6.25;;
37288;SDS011;23174;49.462;11.000;2023-01-20T02:00:57;7.07;;;6.47;;
37288;SDS011;23174;49.462;11.000;2023-01-20T02:02:58;6.95;;;6.35;;
37288;SDS011;23174;49.462;11.000;2023-01-20T02:04:58;6.45;;;5.93;;
37288;SDS011;23174;49.462;11.000;2023-01-20T02:07:03;7.20;;;6.50;;
37288;SDS011;23174;49.462;11.000;2023-01-20T02:09:08;7.78;;;6.97;;
37288;SDS011;23174;49.462;11.000;2023-01-20T02:11:09;7.03;;;6.35;;
37288;SDS011;23174;49.462;11.000;2023-01-20T02:13:09;8.18;;;6.45;;
37288;SDS011;23174;49.462;11.000;2023-01-20T02:15:10;7.30;;;6.63;;
37288;SDS011;23174;49.462;11.000;2023-01-20T02:17:23;6.47;;;5.88;;
37288;SDS011;23174;49.462;11.000;2023-01-20T02:24:18;6.72;;;6.13;;
37288;SDS011;23174;49.462;11.000;2023-01-20T02:33:43;7.57;;;6.88;;
37288;SDS011;23174;49.462;11.000;2023-01-20T02:35:46;7.40;;;6.68;;
37288;SDS011;23174;49.462;11.000;2023-01-20T02:42:23;7.47;;;6.78;;
37288;SDS011;23174;49.462;11.000;2023-01-20T02:44:42;7.28;;;6.65;;
37288;SDS011;23174;49.462;11.000;2023-01-20T02:51:30;7.25;;;6.50;;
37288;SDS011;23174;49.462;11.000;2023-01-20T02:53:46;7.07;;;6.45;;
37288;SDS011;23174;49.462;11.000;2023-01-20T02:55:52;6.90;;;6.32;;
37288;SDS011;23174;49.462;11.000;2023-01-20T02:57:55;8.07;;;7.38;;
37288;SDS011;23174;49.462;11.000;2023-01-20T03:00:25;7.13;;;6.57;;
37288;SDS011;23174;49.462;11.000;2023-01-20T03:02:32;8.30;;;6.88;;
37288;SDS011;23174;49.462;11.000;2023-01-20T03:04:36;7.38;;;6.68;;
37288;SDS011;23174;49.462;11.000;2023-01-20T03:06:43;7.30;;;6.60;;
37288;SDS011;23174;49.462;11.000;2023-01-20T03:08:49;6.50;;;5.93;;
37288;SDS011;23174;49.462;11.000;2023-01-20T03:10:51;7.65;;;6.88;;
37288;SDS011;23174;49.462;11.000;2023-01-20T03:13:08;7.20;;;6.50;;
37288;SDS011;23174;49.462;11.000;2023-01-20T03:15:14;7.68;;;6.97;;
37288;SDS011;23174;49.462;11.000;2023-01-20T03:17:18;7.00;;;6.40;;
37288;SDS011;23174;49.462;11.000;2023-01-20T03:19:19;7.85;;;7.15;;
37288;SDS011;23174;49.462;11.000;2023-01-20T03:21:20;7.97;;;6.75;;
37288;SDS011;23174;49.462;11.000;2023-01-20T03:23:21;11.10;;;7.63;;
37288;SDS011;23174;49.462;11.000;2023-01-20T03:25:22;7.38;;;6.80;;
37288;SDS011;23174;49.462;11.000;2023-01-20T03:27:24;6.80;;;6.30;;
37288;SDS011;23174;49.462;11.000;2023-01-20T03:29:25;7.88;;;7.10;;
37288;SDS011;23174;49.462;11.000;2023-01-20T03:31:28;7.07;;;6.55;;
37288;SDS011;23174;49.462;11.000;2023-01-20T03:33:31;7.72;;;6.63;;
37288;SDS011;23174;49.462;11.000;2023-01-20T03:35:33;8.15;;;7.32;;
37288;SDS011;23174;49.462;11.000;2023-01-20T03:37:33;7.75;;;7.03;;
37288;SDS011;23174;49.462;11.000;2023-01-20T03:39:34;7.35;;;6.53;;
37288;SDS011;23174;49.462;11.000;2023-01-20T03:46:44;7.93;;;7.13;;
37288;SDS011;23174;49.462;11.000;2023-01-20T03:48:51;8.15;;;7.35;;
37288;SDS011;23174;49.462;11.000;2023-01-20T03:51:20;8.50;;;7.70;;
37288;SDS011;23174;49.462;11.000;2023-01-20T03:55:48;8.05;;;7.32;;
37288;SDS011;23174;49.462;11.000;2023-01-20T03:57:56;8.63;;;7.90;;
37288;SDS011;23174;49.462;11.000;2023-01-20T04:00:03;8.43;;;7.55;;
37288;SDS011;23174;49.462;11.000;2023-01-20T04:02:07;9.75;;;8.75;;
37288;SDS011;23174;49.462;11.000;2023-01-20T04:04:10;9.65;;;8.80;;
37288;SDS011;23174;49.462;11.000;2023-01-20T04:06:15;9.25;;;8.35;;
37288;SDS011;23174;49.462;11.000;2023-01-20T04:08:19;10.20;;;9.13;;
37288;SDS011;23174;49.462;11.000;2023-01-20T04:10:25;10.13;;;9.05;;
37288;SDS011;23174;49.462;11.000;2023-01-20T04:12:28;9.57;;;8.73;;
37288;SDS011;23174;49.462;11.000;2023-01-20T04:14:28;9.63;;;8.82;;
37288;SDS011;23174;49.462;11.000;2023-01-20T04:16:29;9.02;;;8.32;;
37288;SDS011;23174;49.462;11.000;2023-01-20T04:18:30;9.98;;;9.07;;
37288;SDS011;23174;49.462;11.000;2023-01-20T04:20:30;11.07;;;9.48;;
37288;SDS011;23174;49.462;11.000;2023-01-20T04:27:07;9.32;;;8.50;;
37288;SDS011;23174;49.462;11.000;2023-01-20T04:29:08;9.68;;;8.82;;
37288;SDS011;23174;49.462;11.000;2023-01-20T04:31:08;9.63;;;8.82;;
37288;SDS011;23174;49.462;11.000;2023-01-20T04:33:10;8.85;;;8.05;;
37288;SDS011;23174;49.462;11.000;2023-01-20T04:35:12;9.48;;;8.52;;
37288;SDS011;23174;49.462;11.000;2023-01-20T04:37:14;8.23;;;7.53;;
37288;SDS011;23174;49.462;11.000;2023-01-20T04:39:15;9.43;;;8.57;;
37288;SDS011;23174;49.462;11.000;2023-01-20T04:41:15;10.43;;;9.38;;
37288;SDS011;23174;49.462;11.000;2023-01-20T04:43:16;8.82;;;8.02;;
37288;SDS011;23174;49.462;11.000;2023-01-20T04:45:17;9.13;;;8.23;;
37288;SDS011;23174;49.462;11.000;2023-01-20T04:47:17;9.05;;;8.25;;
37288;SDS011;23174;49.462;11.000;2023-01-20T04:49:18;9.40;;;8.52;;
37288;SDS011;23174;49.462;11.000;2023-01-20T04:51:19;10.10;;;9.10;;
37288;SDS011;23174;49.462;11.000;2023-01-20T04:53:19;9.93;;;8.93;;
37288;SDS011;23174;49.462;11.000;2023-01-20T04:55:20;9.82;;;8.98;;
37288;SDS011;23174;49.462;11.000;2023-01-20T04:57:20;9.85;;;8.95;;
37288;SDS011;23174;49.462;11.000;2023-01-20T04:59:21;10.10;;;9.13;;
37288;SDS011;23174;49.462;11.000;2023-01-20T05:01:21;10.18;;;9.18;;
37288;SDS011;23174;49.462;11.000;2023-01-20T05:03:22;10.07;;;9.18;;
37288;SDS011;23174;49.462;11.000;2023-01-20T05:05:23;9.02;;;8.20;;
37288;SDS011;23174;49.462;11.000;2023-01-20T05:07:24;9.85;;;8.93;;
37288;SDS011;23174;49.462;11.000;2023-01-20T05:09:24;10.35;;;9.45;;
37288;SDS011;23174;49.462;11.000;2023-01-20T05:11:25;10.05;;;9.05;;
37288;SDS011;23174;49.462;11.000;2023-01-20T05:13:25;9.45;;;8.63;;
37288;SDS011;23174;49.462;11.000;2023-01-20T05:15:26;10.35;;;9.45;;
37288;SDS011;23174;49.462;11.000;2023-01-20T05:17:27;9.13;;;8.32;;
37288;SDS011;23174;49.462;11.000;2023-01-20T05:19:27;10.82;;;9.52;;
37288;SDS011;23174;49.462;11.000;2023-01-20T05:21:28;10.38;;;9.23;;
37288;SDS011;23174;49.462;11.000;2023-01-20T05:23:28;10.25;;;8.90;;
37288;SDS011;23174;49.462;11.000;2023-01-20T05:25:29;10.35;;;9.38;;
37288;SDS011;23174;49.462;11.000;2023-01-20T05:27:30;10.68;;;9.50;;
37288;SDS011;23174;49.462;11.000;2023-01-20T05:29:33;10.13;;;9.32;;
37288;SDS011;23174;49.462;11.000;2023-01-20T05:31:33;10.10;;;9.20;;
37288;SDS011;23174;49.462;11.000;2023-01-20T05:33:36;10.77;;;9.77;;
37288;SDS011;23174;49.462;11.000;2023-01-20T05:35:38;9.77;;;8.88;;
37288;SDS011;23174;49.462;11.000;2023-01-20T05:37:39;11.20;;;10.10;;
37288;SDS011;23174;49.462;11.000;2023-01-20T05:39:40;9.68;;;8.82;;
37288;SDS011;23174;49.462;11.000;2023-01-20T05:41:40;11.30;;;10.20;;
37288;SDS011;23174;49.462;11.000;2023-01-20T05:43:41;11.75;;;10.65;;
37288;SDS011;23174;49.462;11.000;2023-01-20T05:45:42;11.45;;;10.35;;
37288;SDS011;23174;49.462;11.000;2023-01-20T05:47:42;11.27;;;10.15;;
37288;SDS011;23174;49.462;11.000;2023-01-20T05:49:43;10.55;;;9.45;;
37288;SDS011;23174;49.462;11.000;2023-01-20T05:51:43;12.07;;;10.98;;
37288;SDS011;23174;49.462;11.000;2023-01-20T05:53:44;11.07;;;10.15;;
37288;SDS011;23174;49.462;11.000;2023-01-20T05:55:44;10.82;;;9.70;;
37288;SDS011;23174;49.462;11.000;2023-01-20T05:57:45;11.30;;;10.15;;
37288;SDS011;23174;49.462;11.000;2023-01-20T05:59:46;11.65;;;10.68;;
37288;SDS011;23174;49.462;11.000;2023-01-20T06:01:47;11.35;;;10.23;;
37288;SDS011;23174;49.462;11.000;2023-01-20T06:03:47;12.13;;;10.95;;
37288;SDS011;23174;49.462;11.000;2023-01-20T06:05:48;12.85;;;11.00;;
37288;SDS011;23174;49.462;11.000;2023-01-20T06:07:49;11.98;;;10.77;;
37288;SDS011;23174;49.462;11.000;2023-01-20T06:09:49;13.13;;;11.88;;
37288;SDS011;23174;49.462;11.000;2023-01-20T06:11:50;12.57;;;11.40;;
37288;SDS011;23174;49.462;11.000;2023-01-20T06:13:50;14.57;;;11.40;;
37288;SDS011;23174;49.462;11.000;2023-01-20T06:15:51;13.35;;;11.95;;
37288;SDS011;23174;49.462;11.000;2023-01-20T06:17:53;11.93;;;10.55;;
37288;SDS011;23174;49.462;11.000;2023-01-20T06:19:54;12.93;;;11.77;;
37288;SDS011;23174;49.462;11.000;2023-01-20T06:21:55;12.40;;;11.15;;
37288;SDS011;23174;49.462;11.000;2023-01-20T06:23:55;13.73;;;12.43;;
37288;SDS011;23174;49.462;11.000;2023-01-20T06:26:00;12.68;;;11.57;;
37288;SDS011;23174;49.462;11.000;2023-01-20T06:28:01;12.18;;;11.07;;
37288;SDS011;23174;49.462;11.000;2023-01-20T06:30:03;11.65;;;10.65;;
37288;SDS011;23174;49.462;11.000;2023-01-20T06:32:05;12.35;;;11.15;;
37288;SDS011;23174;49.462;11.000;2023-01-20T06:34:05;12.45;;;11.27;;
37288;SDS011;23174;49.462;11.000;2023-01-20T06:36:06;13.23;;;11.77;;
37288;SDS011;23174;49.462;11.000;2023-01-20T06:38:07;13.07;;;11.98;;
37288;SDS011;23174;49.462;11.000;2023-01-20T06:40:08;13.38;;;12.15;;
37288;SDS011;23174;49.462;11.000;2023-01-20T06:42:09;13.30;;;12.00;;
37288;SDS011;23174;49.462;11.000;2023-01-20T06:44:10;13.07;;;11.80;;
37288;SDS011;23174;49.462;11.000;2023-01-20T06:46:11;17.13;;;12.85;;
37288;SDS011;23174;49.462;11.000;2023-01-20T06:48:14;13.40;;;12.05;;
37288;SDS011;23174;49.462;11.000;2023-01-20T06:50:15;14.30;;;13.00;;
37288;SDS011;23174;49.462;11.000;2023-01-20T06:52:16;14.15;;;12.85;;
37288;SDS011;23174;49.462;11.000;2023-01-20T06:54:16;15.32;;;13.80;;
37288;SDS011;23174;49.462;11.000;2023-01-20T06:56:17;14.82;;;13.48;;
37288;SDS011;23174;49.462;11.000;2023-01-20T06:58:17;15.80;;;14.18;;
37288;SDS011;23174;49.462;11.000;2023-01-20T07:00:18;15.32;;;13.82;;
37288;SDS011;23174;49.462;11.000;2023-01-20T07:02:19;16.38;;;14.68;;
37288;SDS011;23174;49.462;11.000;2023-01-20T07:04:20;15.02;;;13.18;;
37288;SDS011;23174;49.462;11.000;2023-01-20T07:08:27;14.80;;;13.30;;
37288;SDS011;23174;49.462;11.000;2023-01-20T07:10:28;12.85;;;11.60;;
37288;SDS011;23174;49.462;11.000;2023-01-20T07:12:28;13.43;;;12.15;;
37288;SDS011;23174;49.462;11.000;2023-01-20T07:14:32;14.80;;;12.07;;
37288;SDS011;23174;49.462;11.000;2023-01-20T07:16:33;14.50;;;12.27;;
37288;SDS011;23174;49.462;11.000;2023-01-20T07:18:33;14.85;;;13.38;;
37288;SDS011;23174;49.462;11.000;2023-01-20T07:20:34;12.48;;;11.18;;
37288;SDS011;23174;49.462;11.000;2023-01-20T07:22:35;14.25;;;12.85;;
37288;SDS011;23174;49.462;11.000;2023-01-20T07:24:35;14.05;;;12.68;;
37288;SDS011;23174;49.462;11.000;2023-01-20T07:26:36;13.93;;;12.60;;
37288;SDS011;23174;49.462;11.000;2023-01-20T07:28:36;14.38;;;12.93;;
37288;SDS011;23174;49.462;11.000;2023-01-20T07:30:37;14.45;;;12.55;;
37288;SDS011;23174;49.462;11.000;2023-01-20T07:32:38;14.55;;;13.00;;
37288;SDS011;23174;49.462;11.000;2023-01-20T07:34:38;13.40;;;12.10;;
37288;SDS011;23174;49.462;11.000;2023-01-20T07:36:39;14.98;;;13.55;;
37288;SDS011;23174;49.462;11.000;2023-01-20T07:38:40;13.80;;;12.40;;
37288;SDS011;23174;49.462;11.000;2023-01-20T07:40:41;14.48;;;13.05;;
37288;SDS011;23174;49.462;11.000;2023-01-20T07:42:42;14.75;;;13.45;;
37288;SDS011;23174;49.462;11.000;2023-01-20T07:44:42;14.35;;;12.80;;
37288;SDS011;23174;49.462;11.000;2023-01-20T07:46:43;13.98;;;12.68;;
37288;SDS011;23174;49.462;11.000;2023-01-20T07:48:44;15.40;;;13.80;;
37288;SDS011;23174;49.462;11.000;2023-01-20T07:50:44;12.93;;;11.82;;
37288;SDS011;23174;49.462;11.000;2023-01-20T07:52:45;14.85;;;13.27;;
37288;SDS011;23174;49.462;11.000;2023-01-20T07:54:45;13.93;;;12.52;;
37288;SDS011;23174;49.462;11.000;2023-01-20T07:56:46;14.98;;;12.55;;
37288;SDS011;23174;49.462;11.000;2023-01-20T07:58:47;2.13;;;1.80;;
37288;SDS011;23174;49.462;11.000;2023-01-20T08:00:49;2.30;;;2.13;;
37288;SDS011;23174;49.462;11.000;2023-01-20T08:02:50;2.55;;;2.10;;
37288;SDS011;23174;49.462;11.000;2023-01-20T08:04:50;2.78;;;2.55;;
37288;SDS011;23174;49.462;11.000;2023-01-20T08:06:51;3.60;;;2.50;;
37288;SDS011;23174;49.462;11.000;2023-01-20T08:08:52;3.00;;;2.63;;
37288;SDS011;23174;49.462;11.000;2023-01-20T08:10:53;2.63;;;2.42;;
37288;SDS011;23174;49.462;11.000;2023-01-20T08:12:54;2.42;;;2.22;;
37288;SDS011;23174;49.462;11.000;2023-01-20T08:14:54;3.33;;;2.50;;
37288;SDS011;23174;49.462;11.000;2023-01-20T08:16:55;3.85;;;2.60;;
37288;SDS011;23174;49.462;11.000;2023-01-20T08:18:56;2.55;;;2.35;;
37288;SDS011;23174;49.462;11.000;2023-01-20T08:20:56;2.03;;;1.92;;
37288;SDS011;23174;49.462;11.000;2023-01-20T08:22:57;14.80;;;13.38;;
37288;SDS011;23174;49.462;11.000;2023-01-20T08:24:58;14.10;;;12.65;;
37288;SDS011;23174;49.462;11.000;2023-01-20T08:26:58;14.55;;;13.15;;
37288;SDS011;23174;49.462;11.000;2023-01-20T08:29:03;15.30;;;13.77;;
37288;SDS011;23174;49.462;11.000;2023-01-20T08:31:07;13.68;;;12.48;;
37288;SDS011;23174;49.462;11.000;2023-01-20T08:33:10;15.00;;;13.35;;
37288;SDS011;23174;49.462;11.000;2023-01-20T08:35:10;14.15;;;12.80;;
37288;SDS011;23174;49.462;11.000;2023-01-20T08:37:11;14.35;;;12.82;;
37288;SDS011;23174;49.462;11.000;2023-01-20T08:39:12;15.95;;;14.45;;
37288;SDS011;23174;49.462;11.000;2023-01-20T08:41:18;14.60;;;13.20;;
37288;SDS011;23174;49.462;11.000;2023-01-20T08:43:20;15.52;;;13.90;;
37288;SDS011;23174;49.462;11.000;2023-01-20T08:45:21;15.52;;;13.60;;
37288;SDS011;23174;49.462;11.000;2023-01-20T08:47:22;13.68;;;12.48;;
37288;SDS011;23174;49.462;11.000;2023-01-20T08:49:23;12.63;;;11.52;;
37288;SDS011;23174;49.462;11.000;2023-01-20T08:51:25;12.63;;;11.32;;
37288;SDS011;23174;49.462;11.000;2023-01-20T08:53:27;16.48;;;13.68;;
37288;SDS011;23174;49.462;11.000;2023-01-20T08:55:28;16.35;;;14.02;;
37288;SDS011;23174;49.462;11.000;2023-01-20T08:57:30;16.13;;;13.90;;
37288;SDS011;23174;49.462;11.000;2023-01-20T08:59:30;15.63;;;14.13;;
37288;SDS011;23174;49.462;11.000;2023-01-20T09:01:32;15.38;;;13.65;;
37288;SDS011;23174;49.462;11.000;2023-01-20T09:03:34;15.63;;;14.13;;
37288;SDS011;23174;49.462;11.000;2023-01-20T09:05:35;14.15;;;12.85;;
37288;SDS011;23174;49.462;11.000;2023-01-20T09:07:36;14.68;;;13.30;;
37288;SDS011;23174;49.462;11.000;2023-01-20T09:09:37;13.73;;;12.40;;
37288;SDS011;23174;49.462;11.000;2023-01-20T09:11:38;14.63;;;13.25;;
37288;SDS011;23174;49.462;11.000;2023-01-20T09:13:39;13.57;;;12.27;;
37288;SDS011;23174;49.462;11.000;2023-01-20T09:15:40;14.80;;;13.05;;
37288;SDS011;23174;49.462;11.000;2023-01-20T09:17:41;14.45;;;12.85;;
37288;SDS011;23174;49.462;11.000;2023-01-20T09:19:41;13.98;;;12.57;;
37288;SDS011;23174;49.462;11.000;2023-01-20T09:21:42;14.20;;;12.98;;
37288;SDS011;23174;49.462;11.000;2023-01-20T09:23:43;15.45;;;13.85;;
37288;SDS011;23174;49.462;11.000;2023-01-20T09:25:46;14.93;;;13.43;;
37288;SDS011;23174;49.462;11.000;2023-01-20T09:27:47;13.77;;;12.38;;
37288;SDS011;23174;49.462;11.000;2023-01-20T09:29:48;14.52;;;13.13;;
37288;SDS011;23174;49.462;11.000;2023-01-20T09:31:49;12.43;;;11.20;;
37288;SDS011;23174;49.462;11.000;2023-01-20T09:33:56;14.10;;;10.90;;
37288;SDS011;23174;49.462;11.000;2023-01-20T09:35:57;11.23;;;10.13;;
37288;SDS011;23174;49.462;11.000;2023-01-20T09:37:59;12.20;;;10.88;;
37288;SDS011;23174;49.462;11.000;2023-01-20T09:40:19;11.57;;;10.38;;
37288;SDS011;23174;49.462;11.000;2023-01-20T09:45:23;11.55;;;10.32;;
37288;SDS011;23174;49.462;11.000;2023-01-20T09:47:38;12.00;;;10.90;;
37288;SDS011;23174;49.462;11.000;2023-01-20T09:52:28;12.63;;;11.38;;
37288;SDS011;23174;49.462;11.000;2023-01-20T09:55:13;11.85;;;10.85;;
37288;SDS011;23174;49.462;11.000;2023-01-20T09:57:18;13.57;;;12.27;;
37288;SDS011;23174;49.462;11.000;2023-01-20T09:59:25;14.38;;;12.98;;
37288;SDS011;23174;49.462;11.000;2023-01-20T10:01:35;12.07;;;10.98;;
37288;SDS011;23174;49.462;11.000;2023-01-20T10:06:06;13.55;;;12.30;;
37288;SDS011;23174;49.462;11.000;2023-01-20T10:08:19;13.50;;;12.30;;
37288;SDS011;23174;49.462;11.000;2023-01-20T10:10:45;13.07;;;11.88;;
37288;SDS011;23174;49.462;11.000;2023-01-20T10:15:21;11.18;;;10.07;;
37288;SDS011;23174;49.462;11.000;2023-01-20T10:19:37;11.27;;;10.18;;
37288;SDS011;23174;49.462;11.000;2023-01-20T10:21:44;11.02;;;10.00;;
37288;SDS011;23174;49.462;11.000;2023-01-20T10:26:03;11.88;;;10.70;;
37288;SDS011;23174;49.462;11.000;2023-01-20T10:28:20;11.80;;;10.77;;
37288;SDS011;23174;49.462;11.000;2023-01-20T10:30:29;12.10;;;11.05;;
37288;SDS011;23174;49.462;11.000;2023-01-20T10:32:39;13.27;;;11.98;;
37288;SDS011;23174;49.462;11.000;2023-01-20T10:34:48;13.05;;;11.85;;
37288;SDS011;23174;49.462;11.000;2023-01-20T10:36:56;11.50;;;10.60;;
37288;SDS011;23174;49.462;11.000;2023-01-20T10:39:08;13.35;;;11.95;;
37288;SDS011;23174;49.462;11.000;2023-01-20T10:41:33;12.27;;;11.20;;
37288;SDS011;23174;49.462;11.000;2023-01-20T10:43:41;11.63;;;10.52;;
37288;SDS011;23174;49.462;11.000;2023-01-20T10:46:03;12.00;;;10.55;;
37288;SDS011;23174;49.462;11.000;2023-01-20T10:48:21;10.35;;;9.45;;
37288;SDS011;23174;49.462;11.000;2023-01-20T10:50:45;10.90;;;9.90;;
37288;SDS011;23174;49.462;11.000;2023-01-20T10:55:26;9.90;;;9.00;;
37288;SDS011;23174;49.462;11.000;2023-01-20T10:57:35;10.93;;;10.02;;
37288;SDS011;23174;49.462;11.000;2023-01-20T10:59:41;9.90;;;9.15;;
37288;SDS011;23174;49.462;11.000;2023-01-20T11:01:50;8.60;;;7.68;;
37288;SDS011;23174;49.462;11.000;2023-01-20T11:03:51;8.88;;;7.68;;
37288;SDS011;23174;49.462;11.000;2023-01-20T11:05:52;10.30;;;9.30;;
37288;SDS011;23174;49.462;11.000;2023-01-20T11:07:53;8.98;;;8.25;;
37288;SDS011;23174;49.462;11.000;2023-01-20T11:09:58;8.45;;;7.75;;
37288;SDS011;23174;49.462;11.000;2023-01-20T11:12:11;9.32;;;8.43;;
37288;SDS011;23174;49.462;11.000;2023-01-20T11:14:15;9.82;;;8.90;;
37288;SDS011;23174;49.462;11.000;2023-01-20T11:16:18;8.57;;;7.93;;
37288;SDS011;23174;49.462;11.000;2023-01-20T11:18:24;9.40;;;8.60;;
37288;SDS011;23174;49.462;11.000;2023-01-20T11:20:29;9.30;;;8.35;;
37288;SDS011;23174;49.462;11.000;2023-01-20T11:22:31;9.15;;;8.18;;
37288;SDS011;23174;49.462;11.000;2023-01-20T11:24:42;8.68;;;8.00;;
37288;SDS011;23174;49.462;11.000;2023-01-20T11:26:44;9.25;;;8.45;;
37288;SDS011;23174;49.462;11.000;2023-01-20T11:30:59;8.95;;;8.25;;
37288;SDS011;23174;49.462;11.000;2023-01-20T11:33:33;9.20;;;8.40;;
37288;SDS011;23174;49.462;11.000;2023-01-20T11:35:27;9.07;;;8.27;;
37288;SDS011;23174;49.462;11.000;2023-01-20T11:37:35;9.90;;;8.98;;
37288;SDS011;23174;49.462;11.000;2023-01-20T11:42:41;8.95;;;8.15;;
37288;SDS011;23174;49.462;11.000;2023-01-20T11:44:18;9.82;;;8.95;;
37288;SDS011;23174;49.462;11.000;2023-01-20T11:48:20;8.95;;;8.25;;
37288;SDS011;23174;49.462;11.000;2023-01-20T11:50:40;8.18;;;7.50;;
37288;SDS011;23174;49.462;11.000;2023-01-20T11:52:45;8.45;;;7.75;;
37288;SDS011;23174;49.462;11.000;2023-01-20T11:54:46;7.82;;;7.22;;
37288;SDS011;23174;49.462;11.000;2023-01-20T11:56:48;9.20;;;6.95;;
37288;SDS011;23174;49.462;11.000;2023-01-20T11:58:56;7.32;;;6.65;;
37288;SDS011;23174;49.462;11.000;2023-01-20T12:01:04;8.20;;;7.60;;
37288;SDS011;23174;49.462;11.000;2023-01-20T12:05:33;7.25;;;6.65;;
37288;SDS011;23174;49.462;11.000;2023-01-20T12:07:40;7.93;;;7.22;;
37288;SDS011;23174;49.462;11.000;2023-01-20T12:09:45;7.57;;;6.88;;
37288;SDS011;23174;49.462;11.000;2023-01-20T12:11:53;8.10;;;7.38;;
37288;SDS011;23174;49.462;11.000;2023-01-20T12:14:12;8.38;;;7.57;;
37288;SDS011;23174;49.462;11.000;2023-01-20T12:16:24;7.57;;;6.97;;
37288;SDS011;23174;49.462;11.000;2023-01-20T12:18:34;8.82;;;8.05;;
37288;SDS011;23174;49.462;11.000;2023-01-20T12:20:54;8.07;;;7.38;;
37288;SDS011;23174;49.462;11.000;2023-01-20T12:23:03;8.68;;;7.85;;
37288;SDS011;23174;49.462;11.000;2023-01-20T12:27:22;8.05;;;7.35;;
37288;SDS011;23174;49.462;11.000;2023-01-20T12:29:29;8.40;;;7.63;;
37288;SDS011;23174;49.462;11.000;2023-01-20T12:31:43;8.07;;;7.47;;
37288;SDS011;23174;49.462;11.000;2023-01-20T12:38:52;8.25;;;7.55;;
37288;SDS011;23174;49.462;11.000;2023-01-20T12:40:56;9.40;;;8.52;;
37288;SDS011;23174;49.462;11.000;2023-01-20T12:46:09;8.25;;;7.55;;
37288;SDS011;23174;49.462;11.000;2023-01-20T12:50:23;7.57;;;6.95;;
37288;SDS011;23174;49.462;11.000;2023-01-20T12:57:59;7.78;;;7.18;;
37288;SDS011;23174;49.462;11.000;2023-01-20T13:00:26;8.15;;;7.45;;
37288;SDS011;23174;49.462;11.000;2023-01-20T13:02:59;9.15;;;8.15;;
37288;SDS011;23174;49.462;11.000;2023-01-20T13:07:47;8.02;;;7.43;;
37288;SDS011;23174;49.462;11.000;2023-01-20T13:10:12;7.95;;;7.15;;
37288;SDS011;23174;49.462;11.000;2023-01-20T13:14:30;8.02;;;7.22;;
37288;SDS011;23174;49.462;11.000;2023-01-20T13:19:13;9.00;;;8.23;;
37288;SDS011;23174;49.462;11.000;2023-01-20T13:21:18;8.70;;;7.90;;
37288;SDS011;23174;49.462;11.000;2023-01-20T13:23:27;8.52;;;7.50;;
37288;SDS011;23174;49.462;11.000;2023-01-20T13:25:33;8.25;;;7.55;;
37288;SDS011;23174;49.462;11.000;2023-01-20T13:27:34;8.30;;;7.50;;
37288;SDS011;23174;49.462;11.000;2023-01-20T13:31:43;7.82;;;7.13;;
37288;SDS011;23174;49.462;11.000;2023-01-20T13:33:44;7.70;;;7.00;;
37288;SDS011;23174;49.462;11.000;2023-01-20T13:35:48;8.63;;;7.82;;
37288;SDS011;23174;49.462;11.000;2023-01-20T13:37:56;8.32;;;7.63;;